Time;durP1;ratioP1;P1;durP2;ratioP2;P2;SDS_P1;SDS_P2;PMS_P1;PMS_P2;Temp;Humidity;BMP_temperature;BMP_pressure;BME280_temperature;BME280_humidity;BME280_pressure;Samples;Min_cycle;Max_cycle;Signal;HPM_P1;HPM_P2
2022/03/21 00:04:36;;;;;;;12.95;8.35;;;9.40;99.90;;;;;;12432348;28;20049;-81
2022/03/21 00:10:38;;;;;;;11.50;8.13;;;9.40;99.90;;;;;;12434134;28;20053;-81
2022/03/21 00:16:41;;;;;;;12.90;7.43;;;9.20;99.90;;;;;;12433911;28;20080;-81
2022/03/21 00:22:44;;;;;;;13.70;7.72;;;9.20;99.90;;;;;;12437986;28;20057;-82
2022/03/21 00:28:46;;;;;;;11.52;7.90;;;9.10;99.90;;;;;;12436631;28;20091;-81
2022/03/21 00:34:48;;;;;;;11.93;7.53;;;9.00;99.90;;;;;;12431229;28;20080;-80
2022/03/21 00:40:50;;;;;;;11.93;7.15;;;8.70;99.90;;;;;;12433010;28;20107;-81
2022/03/21 00:46:52;;;;;;;12.10;7.78;;;8.50;99.90;;;;;;12426186;28;20106;-81
2022/03/21 00:52:56;;;;;;;14.27;8.23;;;8.10;99.90;;;;;;12449375;28;20246;-81
2022/03/21 00:59:00;;;;;;;11.15;7.35;;;8.00;99.90;;;;;;12448884;28;20058;-82
2022/03/21 01:05:02;;;;;;;14.27;7.07;;;7.90;99.90;;;;;;12433300;28;20076;-82
2022/03/21 01:11:04;;;;;;;13.05;7.72;;;7.80;99.90;;;;;;12435432;28;20508;-82
2022/03/21 01:17:06;;;;;;;16.73;7.85;;;7.70;99.90;;;;;;12431531;28;20187;-81
2022/03/21 01:23:08;;;;;;;13.73;8.05;;;7.50;99.90;;;;;;12429377;28;20049;-81
2022/03/21 01:29:10;;;;;;;11.30;7.38;;;7.30;99.90;;;;;;12432393;28;20057;-81
2022/03/21 01:35:16;;;;;;;13.18;7.63;;;7.30;99.90;;;;;;12425852;28;20062;-81
2022/03/21 01:41:19;;;;;;;15.63;7.80;;;7.20;99.90;;;;;;12430392;28;20046;-81
2022/03/21 01:47:21;;;;;;;14.50;8.00;;;7.30;99.90;;;;;;12433331;28;20053;-82
2022/03/21 01:59:44;;;;;;;13.20;7.28;;;7.60;99.90;;;;;;12430880;28;20123;-82
2022/03/21 02:05:49;;;;;;;13.85;8.35;;;7.60;99.90;;;;;;12430689;28;20428;-81
2022/03/21 02:11:53;;;;;;;12.88;7.88;;;7.60;99.90;;;;;;12426520;28;20169;-81
2022/03/21 02:18:00;;;;;;;13.57;7.65;;;7.50;99.90;;;;;;12436136;28;20079;-82
2022/03/21 02:24:34;;;;;;;12.35;7.88;;;7.30;99.90;;;;;;12447280;28;20046;-82
2022/03/21 02:30:41;;;;;;;15.13;8.02;;;7.30;99.90;;;;;;12433924;28;20405;-81
2022/03/21 02:36:43;;;;;;;12.80;7.97;;;7.30;99.90;;;;;;12435254;28;20061;-82
2022/03/21 02:42:45;;;;;;;12.95;8.45;;;7.30;99.90;;;;;;12434322;28;20678;-81
2022/03/21 02:48:48;;;;;;;13.75;7.85;;;7.10;99.90;;;;;;12436775;28;20056;-82
2022/03/21 02:54:50;;;;;;;12.98;7.47;;;7.10;99.90;;;;;;12437764;28;20050;-81
2022/03/21 03:00:52;;;;;;;15.55;8.32;;;7.00;99.90;;;;;;12432799;28;20145;-82
2022/03/21 03:06:54;;;;;;;12.05;7.18;;;7.00;99.90;;;;;;12439640;28;20473;-82
2022/03/21 03:12:56;;;;;;;14.10;8.07;;;7.00;99.90;;;;;;12436201;28;20046;-81
2022/03/21 03:18:59;;;;;;;11.88;7.57;;;6.90;99.90;;;;;;12438677;28;20064;-82
2022/03/21 03:25:02;;;;;;;13.00;8.00;;;7.00;99.90;;;;;;12430462;28;20084;-82
2022/03/21 03:31:05;;;;;;;14.02;7.38;;;7.00;99.90;;;;;;12427824;28;20053;-82
2022/03/21 03:37:07;;;;;;;11.38;7.25;;;7.00;99.90;;;;;;12437340;28;20057;-82
2022/03/21 03:43:10;;;;;;;11.52;7.60;;;7.10;99.90;;;;;;12438733;28;20136;-80
2022/03/21 03:49:12;;;;;;;12.82;7.53;;;7.10;99.90;;;;;;12433788;28;20501;-81
2022/03/21 03:55:17;;;;;;;12.50;7.78;;;7.00;99.90;;;;;;12441920;28;20130;-83
2022/03/21 04:01:19;;;;;;;15.55;7.80;;;7.00;99.90;;;;;;12443136;28;20460;-81
2022/03/21 04:07:22;;;;;;;12.35;7.78;;;7.00;99.90;;;;;;12434269;28;20060;-81
2022/03/21 04:13:24;;;;;;;13.07;8.00;;;7.10;99.90;;;;;;12428011;28;20494;-82
2022/03/21 04:19:26;;;;;;;16.17;8.15;;;7.10;99.90;;;;;;12434646;28;20049;-82
2022/03/21 04:25:28;;;;;;;14.35;7.93;;;6.90;99.90;;;;;;12434144;28;20438;-82
2022/03/21 04:31:32;;;;;;;14.32;8.50;;;6.90;99.90;;;;;;12430659;28;20104;-82
2022/03/21 04:37:34;;;;;;;17.13;8.18;;;7.00;99.90;;;;;;12435217;28;20061;-82
2022/03/21 04:43:36;;;;;;;14.63;8.23;;;7.10;99.90;;;;;;12436859;28;20119;-81
2022/03/21 04:49:37;;;;;;;15.07;8.40;;;6.80;99.90;;;;;;12440114;28;20720;-81
2022/03/21 04:55:40;;;;;;;13.85;8.10;;;6.70;99.90;;;;;;12437355;28;20448;-81
2022/03/21 05:01:42;;;;;;;12.90;7.63;;;6.70;99.90;;;;;;12432567;28;20057;-81
2022/03/21 05:07:45;;;;;;;13.90;8.30;;;6.80;99.90;;;;;;12457452;28;20085;-81
2022/03/21 05:13:47;;;;;;;12.50;7.90;;;6.70;99.90;;;;;;12439706;28;20099;-81
2022/03/21 05:19:49;;;;;;;13.02;8.13;;;6.50;99.90;;;;;;12440679;28;20058;-80
2022/03/21 05:32:11;;;;;;;13.70;8.05;;;6.70;99.90;;;;;;12429312;28;20049;-82
2022/03/21 05:38:13;;;;;;;14.10;8.43;;;6.60;99.90;;;;;;12441158;28;20080;-81
2022/03/21 05:44:15;;;;;;;12.82;7.90;;;6.80;99.90;;;;;;12435517;28;20555;-82
2022/03/21 05:50:17;;;;;;;14.77;8.48;;;6.90;99.90;;;;;;12439461;28;20053;-82
2022/03/21 05:56:19;;;;;;;14.40;8.27;;;6.80;99.90;;;;;;12447053;28;20060;-82
2022/03/21 06:02:22;;;;;;;14.80;8.32;;;6.90;99.90;;;;;;12446639;28;20482;-81
2022/03/21 06:08:26;;;;;;;14.63;8.45;;;6.90;99.90;;;;;;12457562;28;20065;-81
2022/03/21 06:14:28;;;;;;;13.02;7.68;;;6.90;99.90;;;;;;12447550;28;20136;-82
2022/03/21 06:20:30;;;;;;;17.05;8.98;;;7.00;99.90;;;;;;12448967;28;20045;-82
2022/03/21 06:26:32;;;;;;;13.77;8.48;;;7.00;99.90;;;;;;12449283;28;20085;-81
2022/03/21 06:32:35;;;;;;;13.68;7.88;;;7.10;99.90;;;;;;12437179;28;20990;-82
2022/03/21 06:38:37;;;;;;;14.25;8.00;;;7.20;99.90;;;;;;12438058;28;20045;-81
2022/03/21 06:44:39;;;;;;;12.40;7.93;;;7.30;99.90;;;;;;12447839;28;20573;-82
2022/03/21 06:50:41;;;;;;;12.77;8.13;;;7.40;99.90;;;;;;12438300;28;20076;-82
2022/03/21 06:56:43;;;;;;;15.40;8.02;;;7.60;99.90;;;;;;12438859;28;20045;-82
2022/03/21 07:02:45;;;;;;;14.35;8.60;;;7.60;99.90;;;;;;12431733;28;20854;-82
2022/03/21 07:08:51;;;;;;;12.60;7.65;;;7.70;99.90;;;;;;12437652;28;20134;-82
2022/03/21 07:14:53;;;;;;;13.43;8.25;;;7.80;99.90;;;;;;12433547;28;20535;-82
2022/03/21 07:20:55;;;;;;;15.50;8.57;;;8.00;99.90;;;;;;12437942;28;20057;-82
2022/03/21 07:26:57;;;;;;;11.80;7.95;;;8.20;99.90;;;;;;12443176;28;20081;-81
2022/03/21 07:32:59;;;;;;;14.32;8.23;;;8.40;99.90;;;;;;12449968;28;20050;-82
2022/03/21 07:39:01;;;;;;;15.52;8.50;;;8.50;99.90;;;;;;12446221;28;20057;-83
2022/03/21 07:51:29;;;;;;;14.27;8.45;;;8.90;99.90;;;;;;12417349;28;20526;-82
2022/03/21 07:57:31;;;;;;;15.20;7.45;;;9.20;99.90;;;;;;12436800;28;20132;-82
2022/03/21 08:03:33;;;;;;;13.30;8.50;;;9.40;99.90;;;;;;12437925;28;20867;-82
2022/03/21 08:09:35;;;;;;;15.48;8.80;;;9.60;99.90;;;;;;12435173;28;20658;-83
2022/03/21 08:15:37;;;;;;;13.50;8.48;;;9.80;99.90;;;;;;12435775;28;20037;-83
2022/03/21 08:21:39;;;;;;;16.15;9.02;;;10.10;99.90;;;;;;12434022;28;20049;-82
2022/03/21 08:27:43;;;;;;;13.95;8.75;;;10.30;99.90;;;;;;12439078;28;20168;-82
2022/03/21 08:33:45;;;;;;;15.95;8.43;;;10.30;99.90;;;;;;12437931;28;20053;-83
2022/03/21 08:39:48;;;;;;;15.73;9.40;;;10.50;99.90;;;;;;12439369;28;20041;-83
2022/03/21 08:45:50;;;;;;;15.93;9.05;;;10.70;99.90;;;;;;12442222;28;20049;-83
2022/03/21 08:51:53;;;;;;;13.75;8.95;;;10.90;99.90;;;;;;12453502;28;20049;-84
2022/03/21 08:57:56;;;;;;;15.32;9.43;;;10.90;99.90;;;;;;12463884;28;20113;-83
2022/03/21 09:04:01;;;;;;;15.27;10.13;;;11.10;99.90;;;;;;12431890;28;20236;-83
2022/03/21 09:10:04;;;;;;;15.07;9.57;;;11.30;99.90;;;;;;12434700;28;20673;-83
2022/03/21 09:16:06;;;;;;;15.15;9.70;;;11.50;99.90;;;;;;12429979;28;20132;-83
2022/03/21 09:22:08;;;;;;;11.98;8.80;;;11.70;99.90;;;;;;12431186;28;20493;-84
2022/03/21 09:28:10;;;;;;;16.85;10.00;;;12.00;99.90;;;;;;12443192;28;20153;-84
2022/03/21 09:34:13;;;;;;;15.00;9.70;;;12.30;99.90;;;;;;12441151;28;20046;-83
2022/03/21 09:40:19;;;;;;;13.73;9.23;;;12.40;99.90;;;;;;12436387;28;20597;-83
2022/03/21 09:46:22;;;;;;;16.42;9.25;;;12.60;99.90;;;;;;12438221;28;20525;-84
2022/03/21 09:52:24;;;;;;;16.75;10.10;;;12.90;99.90;;;;;;12442014;28;20045;-83
2022/03/21 09:58:28;;;;;;;20.30;10.35;;;13.20;99.90;;;;;;12440783;28;20050;-84
2022/03/21 10:04:30;;;;;;;14.52;10.15;;;13.60;99.90;;;;;;12438683;28;20081;-84
2022/03/21 10:10:32;;;;;;;15.05;10.43;;;13.50;99.90;;;;;;12439300;28;20052;-84
2022/03/21 10:16:53;;;;;;;18.58;10.73;;;13.60;99.90;;;;;;12444791;28;20060;-83
2022/03/21 10:22:55;;;;;;;18.83;10.75;;;13.90;99.90;;;;;;12455148;28;20054;-84
2022/03/21 10:28:59;;;;;;;14.70;10.70;;;13.90;99.90;;;;;;12485432;28;20065;-84
2022/03/21 10:35:02;;;;;;;;;;;14.00;99.90;;;;;;12460960;28;20057;-83
2022/03/21 10:41:09;;;;;;;16.45;10.85;;;14.10;99.90;;;;;;12443095;28;19960;-84
2022/03/21 10:47:11;;;;;;;16.73;11.57;;;14.40;99.90;;;;;;12431592;28;20064;-84
2022/03/21 10:53:17;;;;;;;17.25;11.05;;;14.60;99.90;;;;;;12434956;28;20501;-84
2022/03/21 10:59:19;;;;;;;19.35;11.63;;;14.90;99.90;;;;;;12438140;28;20128;-83
2022/03/21 11:05:22;;;;;;;18.05;11.10;;;15.20;99.90;;;;;;12432501;28;20136;-83
2022/03/21 11:11:24;;;;;;;18.13;12.57;;;15.60;99.90;;;;;;12435654;28;20079;-83
2022/03/21 11:17:26;;;;;;;18.67;11.68;;;15.70;99.90;;;;;;12439361;28;20156;-83
2022/03/21 11:23:30;;;;;;;19.02;12.00;;;15.90;99.90;;;;;;12434890;28;20050;-84
2022/03/21 11:30:00;;;;;;;16.45;11.35;;;15.80;99.90;;;;;;12430943;28;20068;-83
2022/03/21 11:36:08;;;;;;;20.38;12.27;;;16.40;99.90;;;;;;12437106;28;20108;-84
2022/03/21 11:42:22;;;;;;;19.38;12.20;;;16.70;99.90;;;;;;12438234;28;20048;-84
2022/03/21 11:48:24;;;;;;;;;;;16.40;99.90;;;;;;12436479;28;20099;-83
2022/03/21 11:54:37;;;;;;;18.23;12.07;;;16.50;99.90;;;;;;12439794;28;20036;-85
2022/03/21 12:01:01;;;;;;;19.85;13.30;;;16.90;99.90;;;;;;12435023;28;20042;-84
2022/03/21 12:07:12;;;;;;;20.63;13.55;;;16.60;99.90;;;;;;12453182;28;20077;-84
2022/03/21 12:13:19;;;;;;;18.15;12.75;;;16.70;99.90;;;;;;12445138;28;20065;-83
2022/03/21 12:19:21;;;;;;;23.05;12.90;;;17.00;99.90;;;;;;12456905;28;20536;-85
2022/03/21 12:25:29;;;;;;;19.88;13.48;;;17.10;99.90;;;;;;12453034;28;20093;-83
2022/03/21 12:31:31;;;;;;;24.77;13.68;;;17.60;99.90;;;;;;12432578;28;20497;-84
2022/03/21 12:37:36;;;;;;;21.08;13.90;;;16.90;99.90;;;;;;12431885;28;20061;-83
2022/03/21 12:43:45;;;;;;;23.70;14.45;;;16.70;99.90;;;;;;12432202;28;20050;-83
2022/03/21 12:49:53;;;;;;;17.73;12.57;;;17.10;99.90;;;;;;12432137;28;20056;-83
2022/03/21 12:56:00;;;;;;;23.25;14.20;;;17.40;99.90;;;;;;12430474;28;20252;-85
2022/03/21 13:02:02;;;;;;;23.00;14.02;;;17.40;99.90;;;;;;12429932;28;20074;-83
2022/03/21 13:14:25;;;;;;;17.52;12.52;;;16.70;99.90;;;;;;12428305;28;20494;-84
2022/03/21 13:20:31;;;;;;;19.98;13.25;;;16.50;99.90;;;;;;12437043;28;20053;-84
2022/03/21 13:26:33;;;;;;;23.60;14.85;;;16.80;99.90;;;;;;12432929;28;20052;-83
2022/03/21 13:32:42;;;;;;;22.77;13.63;;;17.10;99.90;;;;;;12448717;28;20082;-83
2022/03/21 13:38:44;;;;;;;23.48;13.80;;;17.60;99.90;;;;;;12462397;28;20049;-83
2022/03/21 13:44:52;;;;;;;20.40;12.88;;;17.60;99.90;;;;;;12435473;28;20073;-85
2022/03/21 13:50:59;;;;;;;23.02;14.27;;;17.70;99.90;;;;;;12432758;28;20522;-85
2022/03/21 13:57:08;;;;;;;18.40;13.27;;;17.70;99.90;;;;;;12431288;28;21049;-84
2022/03/21 14:03:10;;;;;;;22.48;14.20;;;17.80;99.90;;;;;;12427703;28;20133;-82
2022/03/21 14:09:13;;;;;;;20.25;14.77;;;17.40;99.90;;;;;;12431450;28;20053;-85
2022/03/21 14:15:19;;;;;;;22.13;13.97;;;17.30;99.90;;;;;;12442411;28;20050;-84
2022/03/21 14:21:21;;;;;;;21.23;13.57;;;17.40;99.90;;;;;;12436309;28;20176;-84
2022/03/21 14:27:23;;;;;;;23.83;14.60;;;17.40;99.90;;;;;;12437213;28;20049;-85
2022/03/21 14:33:26;;;;;;;21.13;12.40;;;17.30;99.90;;;;;;12440457;28;20077;-85
2022/03/21 14:39:28;;;;;;;19.50;12.88;;;17.20;99.90;;;;;;12441954;28;20071;-85
2022/03/21 14:45:31;;;;;;;23.27;13.57;;;17.30;99.90;;;;;;12448329;28;20453;-84
2022/03/21 14:51:37;;;;;;;21.47;13.00;;;17.10;99.90;;;;;;12452036;28;20038;-85
2022/03/21 14:57:39;;;;;;;23.45;13.25;;;17.00;99.90;;;;;;12440592;28;20049;-84
2022/03/21 15:03:41;;;;;;;19.85;13.02;;;16.90;99.90;;;;;;12440946;28;20113;-83
2022/03/21 15:16:04;;;;;;;18.48;13.50;;;16.90;99.90;;;;;;12439197;28;20079;-85
2022/03/21 15:22:06;;;;;;;19.97;12.17;;;17.00;99.90;;;;;;12436100;28;20054;-83
2022/03/21 15:28:11;;;;;;;21.10;14.30;;;17.10;99.90;;;;;;12438198;28;20060;-83
2022/03/21 15:34:13;;;;;;;25.52;12.70;;;17.00;99.90;;;;;;12447182;28;20881;-83
2022/03/21 15:46:37;;;;;;;17.73;11.43;;;17.30;99.90;;;;;;12435585;28;20049;-83
2022/03/21 15:52:44;;;;;;;21.83;13.27;;;17.70;99.90;;;;;;12452474;28;20444;-83
2022/03/21 15:58:45;;;;;;;17.67;12.02;;;17.60;99.90;;;;;;12439051;28;20556;-83
2022/03/21 16:04:48;;;;;;;16.83;11.50;;;17.50;99.90;;;;;;12435373;28;20053;-85
2022/03/21 16:10:50;;;;;;;16.90;12.27;;;17.20;99.90;;;;;;12431772;28;20135;-85
2022/03/21 16:16:55;;;;;;;21.38;12.98;;;16.90;99.90;;;;;;12433837;28;20585;-84
2022/03/21 16:22:57;;;;;;;21.30;12.73;;;16.90;99.90;;;;;;12430969;28;20075;-83
2022/03/21 16:28:58;;;;;;;22.40;12.63;;;16.70;99.90;;;;;;12431188;28;20497;-85
2022/03/21 16:35:03;;;;;;;18.98;12.52;;;16.40;99.90;;;;;;12440263;28;20501;-83
2022/03/21 16:41:05;;;;;;;27.08;13.25;;;16.20;99.90;;;;;;12431522;28;20045;-83
2022/03/21 16:47:07;;;;;;;20.55;11.93;;;16.00;99.90;;;;;;12433914;28;20073;-84
2022/03/21 16:53:09;;;;;;;18.58;12.65;;;15.80;99.90;;;;;;12439406;28;20045;-83
2022/03/21 16:59:11;;;;;;;19.08;11.85;;;15.50;99.90;;;;;;12448137;28;20155;-83
2022/03/21 17:05:15;;;;;;;21.63;12.15;;;15.40;99.90;;;;;;12440361;28;20050;-84
2022/03/21 17:11:17;;;;;;;21.63;13.15;;;15.20;99.90;;;;;;12423250;28;20103;-84
2022/03/21 17:17:19;;;;;;;22.23;12.70;;;14.90;99.90;;;;;;12428239;28;20060;-84
2022/03/21 17:23:20;;;;;;;26.40;12.68;;;14.60;99.90;;;;;;12428987;28;20132;-84
2022/03/21 17:29:22;;;;;;;24.20;12.98;;;14.30;99.90;;;;;;12413311;28;20057;-82
2022/03/21 17:35:25;;;;;;;23.92;13.00;;;14.00;99.90;;;;;;12432021;28;20050;-83
2022/03/21 17:41:27;;;;;;;24.52;13.10;;;13.80;99.90;;;;;;12425796;28;20100;-83
2022/03/21 17:47:28;;;;;;;20.58;12.55;;;13.50;99.90;;;;;;12452824;28;20096;-82
2022/03/21 17:53:33;;;;;;;23.17;13.10;;;13.20;99.90;;;;;;12438710;28;20045;-84
2022/03/21 17:59:35;;;;;;;;;;;13.10;99.90;;;;;;12436459;28;20165;-83
2022/03/21 18:05:40;;;;;;;27.40;15.68;;;12.80;99.90;;;;;;12450416;28;19930;-84
2022/03/21 18:11:42;;;;;;;22.85;14.88;;;12.70;99.90;;;;;;12443596;28;20045;-82
2022/03/21 18:17:44;;;;;;;20.92;14.30;;;12.50;99.90;;;;;;12449830;28;20081;-84
2022/03/21 18:23:45;;;;;;;29.45;15.70;;;12.20;99.90;;;;;;12445712;28;20053;-83
2022/03/21 18:29:47;;;;;;;33.08;17.67;;;12.00;99.90;;;;;;12434314;28;20057;-83
2022/03/21 18:35:49;;;;;;;27.52;18.08;;;11.80;99.90;;;;;;12433257;28;20045;-82
2022/03/21 18:41:52;;;;;;;32.47;20.00;;;11.70;99.90;;;;;;12433677;28;20049;-83
2022/03/21 18:47:54;;;;;;;27.95;15.95;;;11.60;99.90;;;;;;12441270;28;20046;-82
2022/03/21 18:53:56;;;;;;;29.23;15.10;;;11.60;99.90;;;;;;12444983;28;20153;-81
2022/03/21 18:59:58;;;;;;;23.70;14.95;;;11.60;99.90;;;;;;12437592;28;20049;-82
2022/03/21 19:06:00;;;;;;;21.83;14.35;;;11.40;99.90;;;;;;12438745;28;20127;-82
2022/03/21 19:12:02;;;;;;;20.08;13.60;;;11.20;99.90;;;;;;12436567;28;20045;-83
2022/03/21 19:18:24;;;;;;;21.70;13.38;;;11.00;99.90;;;;;;12434791;28;20097;-82
2022/03/21 19:24:26;;;;;;;22.42;13.57;;;11.00;99.90;;;;;;12429407;28;20054;-82
2022/03/21 19:30:29;;;;;;;20.98;13.18;;;11.00;99.90;;;;;;12438241;28;20463;-83
2022/03/21 19:36:32;;;;;;;25.75;14.45;;;10.90;99.90;;;;;;12443708;28;20061;-82
2022/03/21 19:42:42;;;;;;;25.42;13.38;;;10.60;99.90;;;;;;12441155;28;20056;-81
2022/03/21 19:48:44;;;;;;;23.27;13.05;;;10.40;99.90;;;;;;12430706;28;20045;-82
2022/03/21 19:54:46;;;;;;;22.17;12.65;;;10.60;99.90;;;;;;12425575;28;20612;-82
2022/03/21 20:00:49;;;;;;;19.45;12.35;;;11.10;99.90;;;;;;12431296;28;20056;-83
2022/03/21 20:06:51;;;;;;;19.15;11.80;;;11.40;99.90;;;;;;12431644;28;20091;-82
2022/03/21 20:12:56;;;;;;;18.50;11.90;;;11.80;99.90;;;;;;12431032;28;20077;-82
2022/03/21 20:18:58;;;;;;;25.70;12.70;;;11.60;99.90;;;;;;12425305;28;20046;-83
2022/03/21 20:25:00;;;;;;;21.85;12.40;;;11.70;99.90;;;;;;12428219;28;20053;-82
2022/03/21 20:31:02;;;;;;;22.52;14.45;;;11.50;99.90;;;;;;12431358;28;20053;-81
2022/03/21 20:37:04;;;;;;;27.10;15.30;;;11.30;99.90;;;;;;12428342;28;20053;-82
2022/03/21 20:43:07;;;;;;;27.88;16.58;;;11.10;99.90;;;;;;12450691;28;20361;-82
2022/03/21 20:49:08;;;;;;;23.38;14.90;;;10.80;99.90;;;;;;12435518;28;20122;-82
2022/03/21 20:55:10;;;;;;;22.65;12.38;;;10.40;99.90;;;;;;12426876;28;20559;-82
2022/03/21 21:01:13;;;;;;;21.00;11.45;;;10.20;99.90;;;;;;12439156;28;20505;-81
2022/03/21 21:07:15;;;;;;;24.98;13.48;;;10.60;99.90;;;;;;12428633;28;20046;-82
2022/03/21 21:13:24;;;;;;;22.20;11.32;;;10.50;99.90;;;;;;12429954;28;20049;-82
2022/03/21 21:19:26;;;;;;;19.85;11.82;;;10.40;99.90;;;;;;12430431;28;20100;-81
2022/03/21 21:25:30;;;;;;;18.05;11.13;;;10.60;99.90;;;;;;12430015;28;20045;-82
2022/03/21 21:31:34;;;;;;;19.83;11.43;;;10.70;99.90;;;;;;12430643;28;20060;-82
2022/03/21 21:37:36;;;;;;;15.27;10.82;;;10.80;99.90;;;;;;12426285;28;20056;-81
2022/03/21 21:43:37;;;;;;;18.42;11.32;;;10.70;99.90;;;;;;12433084;28;20119;-83
2022/03/21 21:49:40;;;;;;;22.20;10.98;;;10.80;99.90;;;;;;12431563;28;20110;-82
2022/03/21 21:55:42;;;;;;;16.23;10.73;;;10.90;99.90;;;;;;12432025;28;20059;-83
2022/03/21 22:01:47;;;;;;;18.98;11.43;;;10.60;99.90;;;;;;12437637;28;20046;-83
2022/03/21 22:07:50;;;;;;;19.75;11.23;;;10.60;99.90;;;;;;12458591;28;20053;-83
2022/03/21 22:13:53;;;;;;;21.73;12.10;;;10.50;99.90;;;;;;12452621;28;20064;-82
2022/03/21 22:19:56;;;;;;;18.33;10.85;;;10.50;99.90;;;;;;12442760;28;20530;-82
2022/03/21 22:25:58;;;;;;;19.77;11.87;;;10.50;99.90;;;;;;12428924;28;20054;-81
2022/03/21 22:32:05;;;;;;;21.70;11.88;;;10.40;99.90;;;;;;12431673;28;20064;-81
2022/03/21 22:38:07;;;;;;;25.55;11.27;;;10.20;99.90;;;;;;12444151;28;20132;-83
2022/03/21 22:50:29;;;;;;;22.95;12.30;;;10.40;99.90;;;;;;12431995;28;20123;-81
2022/03/21 22:56:31;;;;;;;23.00;14.00;;;10.10;99.90;;;;;;12443598;28;20137;-82
2022/03/21 23:02:34;;;;;;;24.17;13.68;;;10.00;99.90;;;;;;12437967;28;20041;-82
2022/03/21 23:08:36;;;;;;;23.85;12.77;;;9.70;99.90;;;;;;12440940;28;20395;-82
2022/03/21 23:14:38;;;;;;;23.40;12.73;;;9.40;99.90;;;;;;12438038;28;20041;-81
2022/03/21 23:20:40;;;;;;;21.60;12.90;;;9.30;99.90;;;;;;12443772;28;20601;-81
2022/03/21 23:26:42;;;;;;;25.95;15.07;;;9.20;99.90;;;;;;12438462;28;20058;-82
2022/03/21 23:32:45;;;;;;;26.95;15.15;;;9.10;99.90;;;;;;12439242;28;20053;-81
2022/03/21 23:38:48;;;;;;;21.80;14.43;;;8.80;99.90;;;;;;12467441;28;20050;-81
2022/03/21 23:44:50;;;;;;;25.08;14.98;;;8.60;99.90;;;;;;12447471;28;20048;-82
2022/03/21 23:50:52;;;;;;;22.65;14.75;;;8.40;99.90;;;;;;12434836;28;20041;-82
2022/03/21 23:56:54;;;;;;;22.60;13.70;;;8.40;99.90;;;;;;12439629;28;20091;-81
